Huvudsida
METAR-TAF:

METAR-TAF

Flygplatser :

Rønne, Danmark

Bornholms flygplats

latitud: 55-04N, longitud: 014-45E, höjd: 16 m

Aktuellt väderrapport

Denna rapport gjordes för 30 minuter sedan, klockan 02:50 UTC
Vind 5 kt från nord/nordväst
Temperatur 2°C
Fuktighet 87%
Tryck 998 hPa
Sikt 10 km eller mer

METAR: EKRN 190250Z AUTO 33005KT 9999NDV OVC012/// 02/00 Q0998

Tid: 04:20 (03:20 UTC)

Väderprognos

Denna rapport gjordes för 10 timmar och 3 minuter sedan, klockan 17:17 UTC
Prognos gäller från 18 kl. 18 UTC till 18 kl. 23 UTC
Vind 8 kt från ost/nordost
Sikt 10 km eller mer
Spridda moln på en höjd av 800 ft
Brutna moln på en höjd av 1500 ft
Temporärt
från 18 kl. 18 UTC till 18 kl. 23 UTC
Sikt: 2000 m
Brutna moln på en höjd av 800 ft
regn, snö
Blir
från 18 kl. 21 UTC till 18 kl. 23 UTC
Vind 12 kt från nord

TAF: EKRN 181717Z 1818/1823 07008KT 9999 SCT008 BKN015 TEMPO 1818/1823 2000 RASN BKN008 BECMG 1821/1823 01012KT

Aktuella väderrapporter och prognoser från 4000 flygplatser (METAR- och TAF-rapporter).

De tillgängliga stationerna syns som gula och röda prickar på kartan.

För musen över prickarna för att se namnen på stationerna.

Klicka sedan för att få väderrapporter och prognoser.

För att ändra kartan: Klicka på de gröna knapparna med ett svart kors på för att zooma in; den gröna knappen med ett streck på för att zooma ut; eller på de gröna pilarna för angränsande kartor.


METAR-TAF: